Tindal Airport
YPTN : now visible

Airfield :











YOU CAN JOIN US ON...

 
LOGIN :

Register | Disclaimer

   EN    FR    IT 

 









Legend :    VFR   Marginal VFR   IFR   Intensive IFR   Very Intensive IFR
Visi :
Ceiling :
>= 8 km
>= 3000ft
5 to 8 km
1000 to 3000 ft
1500m to 5 km
500 to 1000 ft
800 to 1500m
200 to 500 ft
< 800m
< 200 ft
Symbols :   Thunderstorms  Fog  Heavy snow  Heavy precipitations  Wind > 20 kt






- Airport Elevation : 443 ft
- IATA code : KTR


YPTN - Tindal

CURRENT METAR :
  • 200600Z 32009KT 9999 SCT045 34/23 Q1007

EXPIRED METARs :
  • 200530Z 01007KT 9999 SCT045 34/23 Q1007
  • 200500Z 35009KT 9999 SCT045 35/22 Q1008
  • 200430Z 36007KT 9999 SCT040 34/22 Q1008
  • 200400Z AUTO 35006KT //// // SCT039 BKN056 33/23 Q1009
  • 200330Z 01008KT 340V040 9999 BKN039 32/23 Q1009 RF00.0/000.0

TAF TAF YPTN
Valid from the 20 at 06:00 until the 21 at 06:00 UTC


200523Z 2006/2106 35006KT 9999 SCT040
FM201800 31005KT 9999 SCT010
FM210100 24008KT 9999 SCT030
PROB30
TEMPO 2007/2015 VRB20G35KT 1000 TSRA BKN010 SCT030CB
YBBB FIR / Oceania



MET'MAP, your aeronautical weather chart ! - Copyright ORBIFLY December 2007 - Disclaimer

ORBIFLY MET'MAP TEAM :

Programming & Development : Alexandra Zaïnal
Concept & original design : Baudouin d'Aumeries
Assistance for programming : Marc-Olivier Méhu
Technical & hardware support : Manuel Goepfert

Contact : metmap@orbifly.com




SOURCES & CREDITS :

   NOAA       Earth
Advisory